sensor_id;sensor_type;location;lat;lon;timestamp;pressure;altitude;pressure_sealevel;temperature;humidity
6028;BME280;3042;43.194;27.646;2022-09-09T00:01:02;101909.19;;;26.67;100.00
6028;BME280;3042;43.194;27.646;2022-09-09T00:03:42;101904.78;;;26.55;100.00
6028;BME280;3042;43.194;27.646;2022-09-09T00:06:21;101798.03;;;25.81;100.00
6028;BME280;3042;43.194;27.646;2022-09-09T00:09:01;101908.34;;;26.32;100.00
6028;BME280;3042;43.194;27.646;2022-09-09T00:11:36;101903.06;;;26.23;100.00
6028;BME280;3042;43.194;27.646;2022-09-09T00:14:13;101905.72;;;26.20;100.00
6028;BME280;3042;43.194;27.646;2022-09-09T00:16:49;101908.38;;;26.08;100.00
6028;BME280;3042;43.194;27.646;2022-09-09T00:19:23;101901.34;;;25.95;100.00
6028;BME280;3042;43.194;27.646;2022-09-09T00:22:01;101915.47;;;25.94;100.00
6028;BME280;3042;43.194;27.646;2022-09-09T00:24:39;101911.94;;;25.88;100.00
6028;BME280;3042;43.194;27.646;2022-09-09T00:27:14;101915.41;;;25.75;100.00
6028;BME280;3042;43.194;27.646;2022-09-09T00:29:49;101791.78;;;24.80;100.00
6028;BME280;3042;43.194;27.646;2022-09-09T00:32:20;101914.53;;;25.52;100.00
6028;BME280;3042;43.194;27.646;2022-09-09T00:34:49;101911.88;;;25.48;100.00
6028;BME280;3042;43.194;27.646;2022-09-09T00:37:19;101911.84;;;25.42;100.00
6028;BME280;3042;43.194;27.646;2022-09-09T00:39:48;101916.28;;;25.31;100.00
6028;BME280;3042;43.194;27.646;2022-09-09T00:42:20;101890.59;;;25.12;100.00
6028;BME280;3042;43.194;27.646;2022-09-09T00:44:58;101901.28;;;25.44;100.00
6028;BME280;3042;43.194;27.646;2022-09-09T00:47:40;101897.75;;;25.34;100.00
6028;BME280;3042;43.194;27.646;2022-09-09T00:53:15;101908.31;;;25.25;100.00
6028;BME280;3042;43.194;27.646;2022-09-09T00:55:46;101915.31;;;25.11;100.00
6028;BME280;3042;43.194;27.646;2022-09-09T00:58:15;101918.69;;;24.73;100.00
6028;BME280;3042;43.194;27.646;2022-09-09T01:00:45;101853.38;;;24.53;100.00
6028;BME280;3042;43.194;27.646;2022-09-09T01:03:21;101910.81;;;24.85;100.00
6028;BME280;3042;43.194;27.646;2022-09-09T01:05:58;101708.50;;;23.66;100.00
6028;BME280;3042;43.194;27.646;2022-09-09T01:08:40;101910.75;;;24.79;100.00
6028;BME280;3042;43.194;27.646;2022-09-09T01:11:17;101916.06;;;24.80;100.00
6028;BME280;3042;43.194;27.646;2022-09-09T01:13:52;101911.63;;;24.72;100.00
6028;BME280;3042;43.194;27.646;2022-09-09T01:16:22;101915.09;;;24.68;100.00
6028;BME280;3042;43.194;27.646;2022-09-09T01:18:51;101909.00;;;24.70;100.00
6028;BME280;3042;43.194;27.646;2022-09-09T01:21:27;101906.31;;;24.72;100.00
6028;BME280;3042;43.194;27.646;2022-09-09T01:24:19;101911.66;;;24.81;100.00
6028;BME280;3042;43.194;27.646;2022-09-09T01:26:51;101911.59;;;24.66;100.00
6028;BME280;3042;43.194;27.646;2022-09-09T01:29:21;101917.59;;;24.41;100.00
6028;BME280;3042;43.194;27.646;2022-09-09T01:31:54;101912.47;;;24.69;100.00
6028;BME280;3042;43.194;27.646;2022-09-09T01:34:23;101894.66;;;24.36;100.00
6028;BME280;3042;43.194;27.646;2022-09-09T01:36:57;101825.88;;;24.20;100.00
6028;BME280;3042;43.194;27.646;2022-09-09T01:39:25;101898.28;;;24.49;100.00
6028;BME280;3042;43.194;27.646;2022-09-09T01:41:55;101893.91;;;24.52;100.00
6028;BME280;3042;43.194;27.646;2022-09-09T01:44:23;101900.84;;;24.38;100.00
6028;BME280;3042;43.194;27.646;2022-09-09T01:46:51;101907.81;;;24.27;100.00
6028;BME280;3042;43.194;27.646;2022-09-09T01:49:19;101908.69;;;24.26;100.00
6028;BME280;3042;43.194;27.646;2022-09-09T01:51:50;101892.94;;;24.46;100.00
6028;BME280;3042;43.194;27.646;2022-09-09T01:54:19;101899.81;;;24.16;100.00
6028;BME280;3042;43.194;27.646;2022-09-09T01:56:56;101905.22;;;24.33;100.00
6028;BME280;3042;43.194;27.646;2022-09-09T01:59:45;101828.38;;;23.93;100.00
6028;BME280;3042;43.194;27.646;2022-09-09T02:02:18;101905.13;;;24.19;100.00
6028;BME280;3042;43.194;27.646;2022-09-09T02:04:48;101904.16;;;24.06;100.00
6028;BME280;3042;43.194;27.646;2022-09-09T02:07:34;101904.19;;;24.14;100.00
6028;BME280;3042;43.194;27.646;2022-09-09T02:10:09;101903.25;;;24.04;100.00
6028;BME280;3042;43.194;27.646;2022-09-09T02:12:41;101924.31;;;23.93;100.00
6028;BME280;3042;43.194;27.646;2022-09-09T02:15:19;101905.88;;;23.98;100.00
6028;BME280;3042;43.194;27.646;2022-09-09T02:17:51;101910.16;;;23.84;100.00
6028;BME280;3042;43.194;27.646;2022-09-09T02:20:20;101920.47;;;23.64;100.00
6028;BME280;3042;43.194;27.646;2022-09-09T02:22:51;101918.69;;;23.58;100.00
6028;BME280;3042;43.194;27.646;2022-09-09T02:25:22;101916.75;;;23.40;100.00
6028;BME280;3042;43.194;27.646;2022-09-09T02:27:51;101927.75;;;23.02;100.00
6028;BME280;3042;43.194;27.646;2022-09-09T02:30:20;101921.47;;;22.92;100.00
6028;BME280;3042;43.194;27.646;2022-09-09T02:32:50;101924.69;;;22.71;100.00
6028;BME280;3042;43.194;27.646;2022-09-09T02:35:23;101927.03;;;22.51;100.00
6028;BME280;3042;43.194;27.646;2022-09-09T02:37:54;101920.03;;;22.50;100.00
6028;BME280;3042;43.194;27.646;2022-09-09T02:40:24;101924.88;;;22.23;100.00
6028;BME280;3042;43.194;27.646;2022-09-09T02:42:54;101920.69;;;22.37;100.00
6028;BME280;3042;43.194;27.646;2022-09-09T02:45:25;101747.28;;;21.43;100.00
6028;BME280;3042;43.194;27.646;2022-09-09T02:48:02;101921.72;;;22.47;100.00
6028;BME280;3042;43.194;27.646;2022-09-09T02:50:33;101916.31;;;22.36;100.00
6028;BME280;3042;43.194;27.646;2022-09-09T02:53:07;101918.22;;;22.49;100.00
6028;BME280;3042;43.194;27.646;2022-09-09T02:55:39;101835.84;;;21.99;100.00
6028;BME280;3042;43.194;27.646;2022-09-09T02:58:10;101719.88;;;21.28;100.00
6028;BME280;3042;43.194;27.646;2022-09-09T03:00:40;101902.19;;;22.32;100.00
6028;BME280;3042;43.194;27.646;2022-09-09T03:03:08;101915.25;;;22.25;100.00
6028;BME280;3042;43.194;27.646;2022-09-09T03:05:35;101926.53;;;22.18;100.00
6028;BME280;3042;43.194;27.646;2022-09-09T03:08:03;101884.13;;;21.99;100.00
6028;BME280;3042;43.194;27.646;2022-09-09T03:10:31;101922.84;;;22.06;100.00
6028;BME280;3042;43.194;27.646;2022-09-09T03:12:58;101914.28;;;22.20;100.00
6028;BME280;3042;43.194;27.646;2022-09-09T03:15:25;101916.09;;;22.24;100.00
6028;BME280;3042;43.194;27.646;2022-09-09T03:17:58;101806.41;;;21.66;100.00
6028;BME280;3042;43.194;27.646;2022-09-09T03:20:27;101917.47;;;22.00;100.00
6028;BME280;3042;43.194;27.646;2022-09-09T03:22:55;101913.00;;;21.95;100.00
6028;BME280;3042;43.194;27.646;2022-09-09T03:25:23;101843.69;;;21.41;100.00
6028;BME280;3042;43.194;27.646;2022-09-09T03:27:51;101934.88;;;21.92;100.00
6028;BME280;3042;43.194;27.646;2022-09-09T03:30:20;101935.63;;;21.85;100.00
6028;BME280;3042;43.194;27.646;2022-09-09T03:32:48;101939.91;;;21.78;100.00
6028;BME280;3042;43.194;27.646;2022-09-09T03:35:17;101915.53;;;21.90;100.00
6028;BME280;3042;43.194;27.646;2022-09-09T03:37:44;101913.22;;;21.58;100.00
6028;BME280;3042;43.194;27.646;2022-09-09T03:40:12;101916.78;;;21.60;100.00
6028;BME280;3042;43.194;27.646;2022-09-09T03:42:39;101748.41;;;20.60;100.00
6028;BME280;3042;43.194;27.646;2022-09-09T03:45:08;101899.28;;;21.62;100.00
6028;BME280;3042;43.194;27.646;2022-09-09T03:47:36;101916.78;;;21.60;100.00
6028;BME280;3042;43.194;27.646;2022-09-09T03:50:04;101910.47;;;21.50;100.00
6028;BME280;3042;43.194;27.646;2022-09-09T03:52:36;101906.34;;;21.63;100.00
6028;BME280;3042;43.194;27.646;2022-09-09T03:55:04;101817.56;;;21.03;100.00
6028;BME280;3042;43.194;27.646;2022-09-09T03:57:32;101925.25;;;21.42;100.00
6028;BME280;3042;43.194;27.646;2022-09-09T04:00:01;101913.03;;;21.46;100.00
6028;BME280;3042;43.194;27.646;2022-09-09T04:02:29;101918.28;;;21.46;100.00
6028;BME280;3042;43.194;27.646;2022-09-09T04:04:56;101919.78;;;21.35;100.00
6028;BME280;3042;43.194;27.646;2022-09-09T04:07:23;101925.19;;;21.41;100.00
6028;BME280;3042;43.194;27.646;2022-09-09T04:09:52;101921.28;;;21.67;100.00
6028;BME280;3042;43.194;27.646;2022-09-09T04:12:20;101926.22;;;21.49;100.00
6028;BME280;3042;43.194;27.646;2022-09-09T04:14:48;101844.22;;;21.24;100.00
6028;BME280;3042;43.194;27.646;2022-09-09T04:17:15;101918.94;;;21.83;100.00
6028;BME280;3042;43.194;27.646;2022-09-09T04:19:42;101818.09;;;21.34;100.00
6028;BME280;3042;43.194;27.646;2022-09-09T04:22:10;101920.09;;;22.00;100.00
6028;BME280;3042;43.194;27.646;2022-09-09T04:24:37;101907.84;;;22.02;100.00
6028;BME280;3042;43.194;27.646;2022-09-09T04:27:06;101905.53;;;22.21;100.00
6028;BME280;3042;43.194;27.646;2022-09-09T04:29:33;101890.31;;;22.04;100.00
6028;BME280;3042;43.194;27.646;2022-09-09T04:32:00;101907.44;;;22.31;100.00
6028;BME280;3042;43.194;27.646;2022-09-09T04:34:28;101835.84;;;21.99;100.00
6028;BME280;3042;43.194;27.646;2022-09-09T04:36:56;101902.66;;;22.65;100.00
6028;BME280;3042;43.194;27.646;2022-09-09T04:39:23;101904.63;;;22.84;100.00
6028;BME280;3042;43.194;27.646;2022-09-09T04:41:50;101904.88;;;23.00;100.00
6028;BME280;3042;43.194;27.646;2022-09-09T04:44:20;101905.31;;;23.39;100.00
6028;BME280;3042;43.194;27.646;2022-09-09T04:46:47;101907.97;;;23.43;100.00
6028;BME280;3042;43.194;27.646;2022-09-09T04:49:14;101907.22;;;23.56;100.00
6028;BME280;3042;43.194;27.646;2022-09-09T04:51:41;101875.50;;;23.50;100.00
6028;BME280;3042;43.194;27.646;2022-09-09T04:54:09;101883.47;;;23.57;100.00
6028;BME280;3042;43.194;27.646;2022-09-09T04:56:37;101898.72;;;23.88;100.00
6028;BME280;3042;43.194;27.646;2022-09-09T04:59:04;101891.78;;;24.02;100.00
6028;BME280;3042;43.194;27.646;2022-09-09T05:01:33;101883.22;;;24.37;100.00
6028;BME280;3042;43.194;27.646;2022-09-09T05:04:00;101885.00;;;24.38;100.00
6028;BME280;3042;43.194;27.646;2022-09-09T05:06:28;101890.38;;;24.47;100.00
6028;BME280;3042;43.194;27.646;2022-09-09T05:08:57;101796.78;;;24.11;100.00
6028;BME280;3042;43.194;27.646;2022-09-09T05:11:27;101873.81;;;24.97;100.00
6028;BME280;3042;43.194;27.646;2022-09-09T05:13:55;101852.66;;;24.87;100.00
6028;BME280;3042;43.194;27.646;2022-09-09T05:16:23;101880.97;;;25.24;100.00
6028;BME280;3042;43.194;27.646;2022-09-09T05:18:52;101795.34;;;24.90;100.00
6028;BME280;3042;43.194;27.646;2022-09-09T05:21:21;101867.78;;;25.60;100.00
6028;BME280;3042;43.194;27.646;2022-09-09T05:23:49;101860.69;;;25.68;100.00
6028;BME280;3042;43.194;27.646;2022-09-09T05:26:18;101863.34;;;26.05;100.00
6028;BME280;3042;43.194;27.646;2022-09-09T05:28:46;101843.03;;;26.16;100.00
6028;BME280;3042;43.194;27.646;2022-09-09T05:31:15;101791.75;;;26.23;100.00
6028;BME280;3042;43.194;27.646;2022-09-09T05:33:44;101814.66;;;26.46;100.00
6028;BME280;3042;43.194;27.646;2022-09-09T05:36:15;101779.16;;;26.78;100.00
6028;BME280;3042;43.194;27.646;2022-09-09T05:38:43;101830.22;;;27.10;100.00
6028;BME280;3042;43.194;27.646;2022-09-09T05:41:11;101826.56;;;27.30;100.00
6028;BME280;3042;43.194;27.646;2022-09-09T05:43:41;101831.78;;;27.45;100.00
6028;BME280;3042;43.194;27.646;2022-09-09T05:46:11;101796.16;;;27.68;100.00
6028;BME280;3042;43.194;27.646;2022-09-09T05:48:40;101816.31;;;27.92;100.00
6028;BME280;3042;43.194;27.646;2022-09-09T05:51:09;101762.22;;;27.97;100.00
6028;BME280;3042;43.194;27.646;2022-09-09T05:53:39;101813.03;;;28.44;100.00
6028;BME280;3042;43.194;27.646;2022-09-09T05:56:08;101815.28;;;28.78;100.00
6028;BME280;3042;43.194;27.646;2022-09-09T05:58:37;101811.66;;;28.82;100.00
6028;BME280;3042;43.194;27.646;2022-09-09T06:01:06;101805.97;;;29.10;100.00
6028;BME280;3042;43.194;27.646;2022-09-09T06:03:34;101802.06;;;29.32;100.00
6028;BME280;3042;43.194;27.646;2022-09-09T06:06:03;101798.84;;;29.64;100.00
6028;BME280;3042;43.194;27.646;2022-09-09T06:08:32;101801.84;;;29.44;100.00
6028;BME280;3042;43.194;27.646;2022-09-09T06:11:05;101795.75;;;30.34;100.00
6028;BME280;3042;43.194;27.646;2022-09-09T06:13:33;101785.38;;;30.19;100.00
6028;BME280;3042;43.194;27.646;2022-09-09T06:16:01;101798.94;;;30.52;100.00
6028;BME280;3042;43.194;27.646;2022-09-09T06:18:28;101801.56;;;30.94;100.00
6028;BME280;3042;43.194;27.646;2022-09-09T06:20:56;101773.59;;;31.10;100.00
6028;BME280;3042;43.194;27.646;2022-09-09T06:23:24;101790.59;;;31.42;100.00
6028;BME280;3042;43.194;27.646;2022-09-09T06:25:51;101759.47;;;31.41;100.00
6028;BME280;3042;43.194;27.646;2022-09-09T06:28:28;101783.66;;;32.02;100.00
6028;BME280;3042;43.194;27.646;2022-09-09T06:30:58;101786.38;;;32.00;100.00
6028;BME280;3042;43.194;27.646;2022-09-09T06:33:25;101788.44;;;31.89;100.00
6028;BME280;3042;43.194;27.646;2022-09-09T06:35:53;101796.75;;;32.12;100.00
6028;BME280;3042;43.194;27.646;2022-09-09T06:38:23;101792.75;;;32.26;100.00
6028;BME280;3042;43.194;27.646;2022-09-09T06:40:52;101790.03;;;32.58;100.00
6028;BME280;3042;43.194;27.646;2022-09-09T06:43:20;101779.31;;;32.58;100.00
6028;BME280;3042;43.194;27.646;2022-09-09T06:45:55;101783.13;;;33.08;100.00
6028;BME280;3042;43.194;27.646;2022-09-09T06:48:22;101684.72;;;32.59;100.00
6028;BME280;3042;43.194;27.646;2022-09-09T06:50:51;101761.81;;;33.05;100.00
6028;BME280;3042;43.194;27.646;2022-09-09T06:53:26;101790.84;;;32.89;98.49
6028;BME280;3042;43.194;27.646;2022-09-09T06:55:54;101775.47;;;32.95;99.54
6028;BME280;3042;43.194;27.646;2022-09-09T06:58:21;101779.06;;;32.66;98.14
6028;BME280;3042;43.194;27.646;2022-09-09T07:00:48;101771.19;;;32.90;99.30
6028;BME280;3042;43.194;27.646;2022-09-09T07:03:17;101756.13;;;33.14;98.86
6028;BME280;3042;43.194;27.646;2022-09-09T07:05:54;101766.84;;;33.14;96.33
6028;BME280;3042;43.194;27.646;2022-09-09T07:08:21;101751.28;;;32.12;95.13
6028;BME280;3042;43.194;27.646;2022-09-09T07:10:50;101772.16;;;31.98;96.96
6028;BME280;3042;43.194;27.646;2022-09-09T07:13:19;101803.47;;;31.60;88.75
6028;BME280;3042;43.194;27.646;2022-09-09T07:15:50;101801.56;;;31.65;86.44
6028;BME280;3042;43.194;27.646;2022-09-09T07:18:19;101799.59;;;31.72;85.97
6028;BME280;3042;43.194;27.646;2022-09-09T07:20:53;101796.78;;;31.78;82.12
6028;BME280;3042;43.194;27.646;2022-09-09T07:23:22;101798.13;;;31.60;82.15
6028;BME280;3042;43.194;27.646;2022-09-09T07:25:50;101802.13;;;31.44;83.62
6028;BME280;3042;43.194;27.646;2022-09-09T07:28:18;101799.09;;;31.58;81.08
6028;BME280;3042;43.194;27.646;2022-09-09T07:30:53;101681.59;;;30.86;79.91
6028;BME280;3042;43.194;27.646;2022-09-09T07:33:22;101795.72;;;31.51;83.12
6028;BME280;3042;43.194;27.646;2022-09-09T07:35:49;101804.75;;;31.47;78.23
6028;BME280;3042;43.194;27.646;2022-09-09T07:38:17;101810.91;;;31.49;79.15
6028;BME280;3042;43.194;27.646;2022-09-09T07:40:46;101809.34;;;31.39;78.47
6028;BME280;3042;43.194;27.646;2022-09-09T07:43:13;101820.59;;;31.17;75.14
6028;BME280;3042;43.194;27.646;2022-09-09T07:45:42;101796.78;;;31.44;73.02
6028;BME280;3042;43.194;27.646;2022-09-09T07:48:09;101804.03;;;31.37;72.79
6028;BME280;3042;43.194;27.646;2022-09-09T07:50:38;101750.75;;;31.67;73.73
6028;BME280;3042;43.194;27.646;2022-09-09T07:53:05;101792.47;;;31.72;71.73
6028;BME280;3042;43.194;27.646;2022-09-09T07:55:32;101785.97;;;31.83;74.07
6028;BME280;3042;43.194;27.646;2022-09-09T07:57:59;101705.41;;;31.29;70.82
6028;BME280;3042;43.194;27.646;2022-09-09T08:00:27;101789.53;;;31.49;75.67
6028;BME280;3042;43.194;27.646;2022-09-09T08:02:54;101783.19;;;31.86;75.58
6028;BME280;3042;43.194;27.646;2022-09-09T08:05:22;101774.31;;;31.84;76.17
6028;BME280;3042;43.194;27.646;2022-09-09T08:07:51;101775.69;;;32.00;78.54
6028;BME280;3042;43.194;27.646;2022-09-09T08:10:18;101760.22;;;31.79;74.74
6028;BME280;3042;43.194;27.646;2022-09-09T08:12:45;101758.22;;;31.87;71.43
6028;BME280;3042;43.194;27.646;2022-09-09T08:15:13;101743.75;;;31.94;72.23
6028;BME280;3042;43.194;27.646;2022-09-09T08:17:40;101750.63;;;32.03;69.59
6028;BME280;3042;43.194;27.646;2022-09-09T08:20:09;101732.16;;;32.25;66.33
6028;BME280;3042;43.194;27.646;2022-09-09T08:22:36;101727.84;;;32.50;67.20
6028;BME280;3042;43.194;27.646;2022-09-09T08:25:06;101706.25;;;32.83;67.30
6028;BME280;3042;43.194;27.646;2022-09-09T08:27:35;101704.06;;;32.68;66.51
6028;BME280;3042;43.194;27.646;2022-09-09T08:30:03;101690.34;;;32.78;65.96
6028;BME280;3042;43.194;27.646;2022-09-09T08:32:31;101715.00;;;32.62;69.25
6028;BME280;3042;43.194;27.646;2022-09-09T08:34:58;101703.78;;;32.77;68.57
6028;BME280;3042;43.194;27.646;2022-09-09T08:37:25;101706.03;;;32.63;66.83
6028;BME280;3042;43.194;27.646;2022-09-09T08:39:53;101705.50;;;32.50;67.04
6028;BME280;3042;43.194;27.646;2022-09-09T08:42:40;101631.19;;;32.59;65.33
6028;BME280;3042;43.194;27.646;2022-09-09T08:45:19;101691.97;;;33.11;64.40
6028;BME280;3042;43.194;27.646;2022-09-09T08:47:58;101594.94;;;32.76;60.92
6028;BME280;3042;43.194;27.646;2022-09-09T08:50:30;101678.53;;;32.84;59.98
6028;BME280;3042;43.194;27.646;2022-09-09T08:53:02;101646.41;;;32.84;60.17
6028;BME280;3042;43.194;27.646;2022-09-09T08:55:39;101678.22;;;32.93;58.70
6028;BME280;3042;43.194;27.646;2022-09-09T08:58:13;101674.28;;;33.04;54.95
6028;BME280;3042;43.194;27.646;2022-09-09T09:00:58;101662.66;;;33.06;55.79
6028;BME280;3042;43.194;27.646;2022-09-09T09:03:35;101676.56;;;32.89;53.33
6028;BME280;3042;43.194;27.646;2022-09-09T09:06:09;101671.31;;;32.86;53.63
6028;BME280;3042;43.194;27.646;2022-09-09T09:08:44;101674.13;;;32.83;56.16
6028;BME280;3042;43.194;27.646;2022-09-09T09:11:15;101665.31;;;32.79;54.80
6028;BME280;3042;43.194;27.646;2022-09-09T09:13:48;101661.97;;;33.50;54.64
6028;BME280;3042;43.194;27.646;2022-09-09T09:16:25;101656.06;;;33.15;54.83
6028;BME280;3042;43.194;27.646;2022-09-09T09:18:54;101659.25;;;33.26;54.91
6028;BME280;3042;43.194;27.646;2022-09-09T09:21:29;101656.38;;;33.56;53.30
6028;BME280;3042;43.194;27.646;2022-09-09T09:24:01;101667.28;;;33.26;53.29
6028;BME280;3042;43.194;27.646;2022-09-09T09:26:34;101650.59;;;33.68;53.06
6028;BME280;3042;43.194;27.646;2022-09-09T09:29:10;101644.09;;;33.74;55.00
6028;BME280;3042;43.194;27.646;2022-09-09T09:31:38;101620.97;;;33.71;53.60
6028;BME280;3042;43.194;27.646;2022-09-09T09:34:08;101641.38;;;33.97;53.60
6028;BME280;3042;43.194;27.646;2022-09-09T09:36:40;101594.59;;;33.82;52.06
6028;BME280;3042;43.194;27.646;2022-09-09T09:39:10;101650.09;;;33.80;50.61
6028;BME280;3042;43.194;27.646;2022-09-09T09:41:39;101596.72;;;33.74;51.45
6028;BME280;3042;43.194;27.646;2022-09-09T09:44:23;101628.75;;;34.01;51.32
6028;BME280;3042;43.194;27.646;2022-09-09T09:46:51;101562.22;;;33.41;53.13
6028;BME280;3042;43.194;27.646;2022-09-09T09:49:19;101518.41;;;33.19;52.51
6028;BME280;3042;43.194;27.646;2022-09-09T09:51:47;101595.16;;;34.14;52.59
6028;BME280;3042;43.194;27.646;2022-09-09T09:54:27;101596.84;;;34.59;51.39
6028;BME280;3042;43.194;27.646;2022-09-09T09:56:56;101605.94;;;34.35;50.49
6028;BME280;3042;43.194;27.646;2022-09-09T09:59:33;101578.03;;;34.39;51.58
6028;BME280;3042;43.194;27.646;2022-09-09T10:02:22;101540.97;;;34.04;51.02
6028;BME280;3042;43.194;27.646;2022-09-09T10:05:01;101599.13;;;34.48;51.03
6028;BME280;3042;43.194;27.646;2022-09-09T10:07:29;101593.13;;;34.41;50.62
6028;BME280;3042;43.194;27.646;2022-09-09T10:09:57;101588.56;;;34.65;50.92
6028;BME280;3042;43.194;27.646;2022-09-09T10:12:34;101588.19;;;34.75;49.58
6028;BME280;3042;43.194;27.646;2022-09-09T10:15:21;101584.09;;;34.86;50.78
6028;BME280;3042;43.194;27.646;2022-09-09T10:17:58;101587.38;;;34.51;49.19
6028;BME280;3042;43.194;27.646;2022-09-09T10:20:35;101591.72;;;34.33;48.82
6028;BME280;3042;43.194;27.646;2022-09-09T10:23:18;101590.16;;;34.27;47.85
6028;BME280;3042;43.194;27.646;2022-09-09T10:26:03;101584.06;;;34.44;48.67
6028;BME280;3042;43.194;27.646;2022-09-09T10:28:56;101580.06;;;34.54;48.42
6028;BME280;3042;43.194;27.646;2022-09-09T10:31:35;101589.91;;;34.33;48.21
6028;BME280;3042;43.194;27.646;2022-09-09T10:34:15;101561.56;;;34.89;47.56
6028;BME280;3042;43.194;27.646;2022-09-09T10:36:47;101570.25;;;34.33;48.33
6028;BME280;3042;43.194;27.646;2022-09-09T10:39:33;101570.50;;;34.69;49.08
6028;BME280;3042;43.194;27.646;2022-09-09T10:42:05;101533.44;;;34.35;48.35
6028;BME280;3042;43.194;27.646;2022-09-09T10:44:46;101508.59;;;34.52;47.62
6028;BME280;3042;43.194;27.646;2022-09-09T10:47:38;101558.28;;;35.03;46.62
6028;BME280;3042;43.194;27.646;2022-09-09T10:50:35;101447.56;;;34.35;46.64
6028;BME280;3042;43.194;27.646;2022-09-09T10:53:14;101550.28;;;35.22;46.39
6028;BME280;3042;43.194;27.646;2022-09-09T10:55:43;101544.91;;;35.22;46.52
6028;BME280;3042;43.194;27.646;2022-09-09T10:58:17;101545.47;;;34.89;45.83
6028;BME280;3042;43.194;27.646;2022-09-09T11:00:50;101552.97;;;35.01;46.04
6028;BME280;3042;43.194;27.646;2022-09-09T11:03:23;101550.94;;;35.06;45.83
6028;BME280;3042;43.194;27.646;2022-09-09T11:05:56;101531.72;;;35.54;46.87
6028;BME280;3042;43.194;27.646;2022-09-09T11:08:26;101522.63;;;34.79;45.79
6028;BME280;3042;43.194;27.646;2022-09-09T11:11:02;101511.69;;;35.42;45.34
6028;BME280;3042;43.194;27.646;2022-09-09T11:13:35;101547.00;;;35.34;46.19
6028;BME280;3042;43.194;27.646;2022-09-09T11:16:16;101483.03;;;35.03;45.23
6028;BME280;3042;43.194;27.646;2022-09-09T11:18:46;101422.84;;;34.67;44.95
6028;BME280;3042;43.194;27.646;2022-09-09T11:21:20;101529.25;;;35.30;45.47
6028;BME280;3042;43.194;27.646;2022-09-09T11:23:52;101517.47;;;35.51;45.50
6028;BME280;3042;43.194;27.646;2022-09-09T11:26:29;101525.34;;;35.56;46.91
6028;BME280;3042;43.194;27.646;2022-09-09T11:29:20;101536.41;;;35.31;46.80
6028;BME280;3042;43.194;27.646;2022-09-09T11:32:04;101444.03;;;34.94;45.90
6028;BME280;3042;43.194;27.646;2022-09-09T11:34:47;101536.44;;;35.11;45.24
6028;BME280;3042;43.194;27.646;2022-09-09T11:37:42;101526.91;;;35.03;45.18
6028;BME280;3042;43.194;27.646;2022-09-09T11:40:18;101528.94;;;34.98;45.82
6028;BME280;3042;43.194;27.646;2022-09-09T11:42:46;101532.28;;;35.03;45.92
6028;BME280;3042;43.194;27.646;2022-09-09T11:45:24;101523.13;;;35.07;46.92
6028;BME280;3042;43.194;27.646;2022-09-09T11:47:55;101516.78;;;35.29;46.95
6028;BME280;3042;43.194;27.646;2022-09-09T11:50:35;101439.88;;;34.87;46.53
6028;BME280;3042;43.194;27.646;2022-09-09T11:53:19;101514.00;;;35.12;45.36
6028;BME280;3042;43.194;27.646;2022-09-09T11:56:11;101401.25;;;34.71;46.17
6028;BME280;3042;43.194;27.646;2022-09-09T11:58:44;101430.22;;;34.83;45.97
6028;BME280;3042;43.194;27.646;2022-09-09T12:01:35;101511.78;;;35.40;49.02
6028;BME280;3042;43.194;27.646;2022-09-09T12:04:21;101494.09;;;35.54;46.33
6028;BME280;3042;43.194;27.646;2022-09-09T12:06:58;101513.31;;;35.65;61.48
6028;BME280;3042;43.194;27.646;2022-09-09T12:09:32;101520.41;;;35.66;63.72
6028;BME280;3042;43.194;27.646;2022-09-09T12:12:22;101541.19;;;35.24;67.65
6028;BME280;3042;43.194;27.646;2022-09-09T12:15:16;101554.94;;;34.77;70.83
6028;BME280;3042;43.194;27.646;2022-09-09T12:17:48;101519.19;;;34.55;70.17
6028;BME280;3042;43.194;27.646;2022-09-09T12:20:18;101546.94;;;34.96;71.22
6028;BME280;3042;43.194;27.646;2022-09-09T12:23:14;101546.34;;;35.08;71.51
6028;BME280;3042;43.194;27.646;2022-09-09T12:26:04;101564.78;;;34.97;75.22
6028;BME280;3042;43.194;27.646;2022-09-09T12:28:47;101560.69;;;34.88;78.07
6028;BME280;3042;43.194;27.646;2022-09-09T12:31:21;101557.44;;;34.60;78.34
6028;BME280;3042;43.194;27.646;2022-09-09T12:33:51;101556.81;;;34.53;78.34
6028;BME280;3042;43.194;27.646;2022-09-09T12:36:20;101450.00;;;33.98;77.97
6028;BME280;3042;43.194;27.646;2022-09-09T12:38:50;101530.16;;;34.71;79.22
6028;BME280;3042;43.194;27.646;2022-09-09T12:41:20;101547.44;;;34.84;80.47
6028;BME280;3042;43.194;27.646;2022-09-09T12:43:47;101550.69;;;34.72;80.14
6028;BME280;3042;43.194;27.646;2022-09-09T12:46:22;101510.56;;;34.68;80.01
6028;BME280;3042;43.194;27.646;2022-09-09T12:48:53;101552.03;;;34.61;80.69
6028;BME280;3042;43.194;27.646;2022-09-09T12:51:25;101518.47;;;34.72;78.52
6028;BME280;3042;43.194;27.646;2022-09-09T12:53:55;101546.28;;;34.71;80.42
6028;BME280;3042;43.194;27.646;2022-09-09T12:56:25;101551.47;;;34.53;82.22
6028;BME280;3042;43.194;27.646;2022-09-09T12:58:55;101554.16;;;34.53;81.00
6028;BME280;3042;43.194;27.646;2022-09-09T13:01:26;101553.53;;;34.68;79.79
6028;BME280;3042;43.194;27.646;2022-09-09T13:03:54;101552.66;;;34.46;81.62
6028;BME280;3042;43.194;27.646;2022-09-09T13:06:24;101568.81;;;34.24;83.45
6028;BME280;3042;43.194;27.646;2022-09-09T13:08:53;101399.13;;;33.53;82.98
6028;BME280;3042;43.194;27.646;2022-09-09T13:11:26;101546.13;;;34.74;82.22
6028;BME280;3042;43.194;27.646;2022-09-09T13:13:56;101557.78;;;34.52;82.63
6028;BME280;3042;43.194;27.646;2022-09-09T13:16:26;101531.56;;;34.37;78.32
6028;BME280;3042;43.194;27.646;2022-09-09T13:18:58;101499.97;;;33.57;79.54
6028;BME280;3042;43.194;27.646;2022-09-09T13:21:34;101560.47;;;34.10;85.13
6028;BME280;3042;43.194;27.646;2022-09-09T13:24:04;101548.69;;;33.68;83.38